Αρχική σελίδα
METAR-TAF:

METAR-TAF

Αεροδρόμια :

Teslin, Γιουκόν, Καναδάς

γεωγραφικό πλάτος: 60-10N, γεωγραφικό μήκος: 132-44W, υψόμετρο: 711 μ

Παρών καιρός

Η αναφορά έγινε 12 ώρες και 52 λεπτά πριν, στις 01:00 UTC
Άνεμος 5 kt από Α
Θερμοκρασία -10°C
Υγρασία 92%
Πίεση 1014 hPa
Ορατότητα: 32.2 χλμ
Νεφοσκεπής σε ύψος 18000 πόδια

METAR: CYZW 100100Z 08005KT 20SM OVC180 M10/M11 A2995 RMK AC8 LAST STFD OBS/NXT 101700 UTC SLP198

Χρόνος: 05:52 (13:52 UTC)

Πρόγνωση Καιρού

Η αναφορά έγινε 14 ώρες και 50 λεπτά πριν, στις 23:02 UTC
Η πρόγνωση ισχύει από τις 09 στις 23 UTC έως τις 10 στις 01 UTC
Άνεμος 5 kt από Α/BA
Ορατότητα: 10 χλμ
Διάσπαρτα νέφη σε ύψος 1500 πόδια
Προσωρινά
από 09 στις 23 UTC έως τις 10 στις 01 UTC
Ορατότητα: 9.7 χλμ
Αρκετά νέφη σε ύψος 1500 πόδια
Αχλής

TAF: CYZW 092302Z 0923/1001 07005KT P6SM SCT015 TEMPO 0923/1001 6SM BR BKN015 RMK NXT FCST WILL BE ISSUED AT 101845Z

Μετεωρολογικές αναφορές και προγνώσεις για περισσότερα από 4000 αεροδρόμια (δελτία METAR και TAF).

Οι διαθέσιμοι σταθμοί απεικονίζονται στο χάρτη με κίτρινες και κόκκινες κουκκίδες.

Μετακινήστε το ποντίκι πάνω από τις κουκκίδες για να δείτε το όνομα του σταθμού.

Στη συνέχεια, κάντε κλικ για να δείτε τις μετεωρολογικές αναφορές και τις προγνώσεις καιρού.

Για να αλλάξετε το χάρτη: κάντε κλικ στα πράσινα κουμπιά με τον μαύρο σταυρό για να ζουμάρετε, στο πράσινο κουμπί με την παύλα για να αφαιρέσετε το ζουμ ή στα πράσινα βέλη για να αντιπαραβάλλετε χάρτες.


METAR-TAF: